Terminal Aerodrome Forecast
Issued by NWS

Home | Current Version | Previous Version | Text Only | Print | Product List | Glossary On
Versions: 1 2 3 4 5 6 7 8 9 10 11 12 13 14 15 16 17 18 19 20 21 22 23
000
FTUS44 KLIX 172300
TAFHUM
TAF
KHUM 172339Z 1800/1824 06008KT 5SM -RA BR OVC011
     FM180400 06010KT 6SM SHRA OVC015
     FM180500 05010KT P6SM OVC015
     FM181100 01009KT P6SM BKN008
     FM182100 01008KT P6SM SCT050=

USA.gov is the U.S. government's official web portal to all federal, state and local government web resources and services.